Time;durP1;ratioP1;P1;durP2;ratioP2;P2;SDS_P1;SDS_P2;PMS_P1;PMS_P2;Temp;Humidity;BMP_temperature;BMP_pressure;BME280_temperature;BME280_humidity;BME280_pressure;Samples;Min_cycle;Max_cycle;Signal;HPM_P1;HPM_P2
2022/03/20 00:02:03;;;;;;;8.30;7.50;;;23.00;33.80;;;;;;5039474;28;20586;-50
2022/03/20 00:04:29;;;;;;;7.50;6.55;;;23.00;33.80;;;;;;5046514;28;20037;-50
2022/03/20 00:06:55;;;;;;;7.93;7.13;;;23.00;33.80;;;;;;5046354;28;20041;-50
2022/03/20 00:09:21;;;;;;;7.38;6.68;;;23.00;33.80;;;;;;5045036;28;20025;-50
2022/03/20 00:11:46;;;;;;;7.90;6.95;;;23.00;33.70;;;;;;5046166;28;20055;-49
2022/03/20 00:14:12;;;;;;;7.75;6.90;;;23.00;33.70;;;;;;5046536;28;20021;-51
2022/03/20 00:16:38;;;;;;;8.52;7.47;;;23.00;33.70;;;;;;5045763;28;20079;-49
2022/03/20 00:19:05;;;;;;;7.47;6.65;;;23.00;33.70;;;;;;5046272;28;20035;-51
2022/03/20 00:21:32;;;;;;;8.35;7.50;;;22.90;33.70;;;;;;5038682;28;20509;-50
2022/03/20 00:23:58;;;;;;;7.95;7.10;;;22.90;33.70;;;;;;5026418;28;20037;-51
2022/03/20 00:26:23;;;;;;;9.13;7.65;;;22.90;33.70;;;;;;5026516;28;20034;-50
2022/03/20 00:28:49;;;;;;;8.52;7.38;;;22.90;33.60;;;;;;5025539;28;20029;-50
2022/03/20 00:31:15;;;;;;;7.97;7.07;;;22.90;33.70;;;;;;5026049;28;20034;-49
2022/03/20 00:33:40;;;;;;;7.70;6.82;;;22.90;33.60;;;;;;5026207;28;20142;-49
2022/03/20 00:36:06;;;;;;;7.32;6.63;;;22.90;33.70;;;;;;5029757;28;20028;-50
2022/03/20 00:38:32;;;;;;;7.55;6.75;;;22.90;33.60;;;;;;5045751;28;20028;-49
2022/03/20 00:40:58;;;;;;;8.75;7.82;;;22.80;33.50;;;;;;5045861;28;20080;-50
2022/03/20 00:43:24;;;;;;;8.07;7.20;;;22.80;33.60;;;;;;5045908;28;20025;-49
2022/03/20 00:45:49;;;;;;;8.80;7.45;;;22.80;33.60;;;;;;5045201;28;20029;-49
2022/03/20 00:48:15;;;;;;;7.82;7.03;;;22.80;33.60;;;;;;5035752;28;20486;-50
2022/03/20 00:50:41;;;;;;;7.35;6.55;;;22.80;33.50;;;;;;5026266;28;20401;-51
2022/03/20 00:53:07;;;;;;;7.97;7.18;;;22.80;33.50;;;;;;5025667;28;20030;-50
2022/03/20 00:55:33;;;;;;;8.27;7.35;;;22.80;33.50;;;;;;5025645;28;20037;-51
2022/03/20 00:58:00;;;;;;;7.70;6.88;;;22.80;34.20;;;;;;5024228;28;20022;-51
2022/03/20 01:00:26;;;;;;;7.28;6.45;;;22.80;33.50;;;;;;5024795;28;20344;-49
2022/03/20 01:02:52;;;;;;;8.43;7.53;;;22.80;33.50;;;;;;5024879;28;20029;-51
2022/03/20 01:05:17;;;;;;;8.18;7.18;;;22.80;34.10;;;;;;5025177;28;20041;-51
2022/03/20 01:07:43;;;;;;;7.93;7.13;;;22.80;33.50;;;;;;5025187;28;20707;-49
2022/03/20 01:10:09;;;;;;;7.70;6.90;;;22.80;33.50;;;;;;5025359;28;20033;-51
2022/03/20 01:12:37;;;;;;;7.68;6.57;;;22.80;33.50;;;;;;5025227;28;20030;-51
2022/03/20 01:15:06;;;;;;;8.07;6.50;;;22.80;33.50;;;;;;5025355;28;20553;-51
2022/03/20 01:17:32;;;;;;;7.07;6.35;;;22.70;33.50;;;;;;5023370;28;20496;-49
2022/03/20 01:19:58;;;;;;;7.47;6.63;;;22.80;33.50;;;;;;5025195;28;20117;-49
2022/03/20 01:22:23;;;;;;;7.15;6.43;;;22.80;33.50;;;;;;5038681;28;20037;-50
2022/03/20 01:24:49;;;;;;;7.88;7.07;;;22.70;33.50;;;;;;5044938;28;20068;-50
2022/03/20 01:27:16;;;;;;;8.05;6.65;;;22.70;33.50;;;;;;5044371;28;20108;-49
2022/03/20 01:29:42;;;;;;;7.57;6.47;;;22.70;33.50;;;;;;5045905;28;20029;-51
2022/03/20 01:32:10;;;;;;;6.80;6.10;;;22.70;33.50;;;;;;5045133;28;20033;-51
2022/03/20 01:34:36;;;;;;;7.53;6.63;;;22.70;33.50;;;;;;5044882;28;20028;-50
2022/03/20 01:37:02;;;;;;;7.80;6.65;;;22.70;33.40;;;;;;5043604;28;20115;-51
2022/03/20 01:39:28;;;;;;;7.10;6.13;;;22.70;33.50;;;;;;5044847;28;20032;-51
2022/03/20 01:41:54;;;;;;;7.60;6.80;;;22.70;33.40;;;;;;5030215;28;20029;-50
2022/03/20 01:44:19;;;;;;;7.38;6.43;;;22.60;33.40;;;;;;5024233;28;20264;-49
2022/03/20 01:46:45;;;;;;;7.10;6.40;;;22.60;33.40;;;;;;5024448;28;20060;-51
2022/03/20 01:49:11;;;;;;;6.70;5.75;;;22.60;33.40;;;;;;5024087;28;20075;-50
2022/03/20 01:54:21;;;;;;;7.07;6.30;;;22.60;33.30;;;;;;5045074;28;20060;-50
2022/03/20 01:56:51;;;;;;;7.15;6.40;;;22.60;33.30;;;;;;5044593;28;20048;-52
2022/03/20 01:59:17;;;;;;;6.78;5.85;;;22.60;33.40;;;;;;5044677;28;20025;-51
2022/03/20 02:01:44;;;;;;;6.57;5.88;;;22.60;33.40;;;;;;5043669;28;20033;-50
2022/03/20 02:04:16;;;;;;;7.32;6.18;;;22.60;33.40;;;;;;5045015;28;20766;-49
2022/03/20 02:06:42;;;;;;;6.60;5.90;;;22.60;33.40;;;;;;5043771;28;20416;-50
2022/03/20 02:09:09;;;;;;;7.30;6.47;;;22.60;33.40;;;;;;5042939;28;20041;-51
2022/03/20 02:11:35;;;;;;;7.97;7.03;;;22.60;33.30;;;;;;5043904;28;20508;-50
2022/03/20 02:14:01;;;;;;;7.65;6.75;;;22.60;33.40;;;;;;5044453;28;20025;-50
2022/03/20 02:16:27;;;;;;;7.57;6.53;;;22.60;33.40;;;;;;5044181;28;20029;-50
2022/03/20 02:18:54;;;;;;;6.57;5.85;;;22.60;33.30;;;;;;5031881;28;20136;-51
2022/03/20 02:21:43;;;;;;;6.80;5.80;;;22.50;33.30;;;;;;5024115;28;20077;-51
2022/03/20 02:24:28;;;;;;;6.38;5.68;;;22.50;33.40;;;;;;5024940;28;20029;-50
2022/03/20 02:27:05;;;;;;;6.32;5.35;;;22.50;33.30;;;;;;5024366;28;20040;-50
2022/03/20 02:29:31;;;;;;;6.60;5.72;;;22.50;33.30;;;;;;5024243;28;20060;-51
2022/03/20 02:31:59;;;;;;;7.50;6.22;;;22.50;33.30;;;;;;5023765;28;20215;-50
2022/03/20 02:34:28;;;;;;;7.57;6.00;;;22.50;33.30;;;;;;5024722;28;20029;-51
2022/03/20 02:36:55;;;;;;;6.57;5.65;;;22.50;33.30;;;;;;5032567;28;20536;-50
2022/03/20 02:39:22;;;;;;;7.05;6.05;;;22.50;33.30;;;;;;5043659;28;20033;-51
2022/03/20 02:41:49;;;;;;;6.70;5.55;;;22.50;33.30;;;;;;5043999;28;20039;-50
2022/03/20 02:44:15;;;;;;;6.60;5.60;;;22.50;33.30;;;;;;5043926;28;20036;-49
2022/03/20 02:46:42;;;;;;;6.55;5.60;;;22.50;33.30;;;;;;5043766;28;20029;-51
2022/03/20 02:49:09;;;;;;;6.70;6.00;;;22.50;33.30;;;;;;5042702;28;20071;-50
2022/03/20 02:51:36;;;;;;;6.30;5.47;;;22.50;33.30;;;;;;5043613;28;20029;-51
2022/03/20 02:54:05;;;;;;;6.40;5.63;;;22.50;33.30;;;;;;5043013;28;20437;-52
2022/03/20 02:56:32;;;;;;;6.55;5.38;;;22.50;33.30;;;;;;5043958;28;20025;-50
2022/03/20 02:58:59;;;;;;;6.80;5.95;;;22.40;33.20;;;;;;5044077;28;20021;-50
2022/03/20 03:01:24;;;;;;;6.10;5.22;;;22.40;33.20;;;;;;5044368;28;20025;-49
2022/03/20 03:03:53;;;;;;;5.97;5.20;;;22.40;33.30;;;;;;5044516;28;20131;-49
2022/03/20 03:06:19;;;;;;;6.55;5.85;;;22.40;33.20;;;;;;5044173;28;20051;-50
2022/03/20 03:11:29;;;;;;;5.97;4.93;;;22.40;33.20;;;;;;5047641;28;20128;-50
2022/03/20 03:13:55;;;;;;;6.80;5.43;;;22.40;33.20;;;;;;5047643;28;20445;-50
2022/03/20 03:16:21;;;;;;;6.45;5.70;;;22.40;33.20;;;;;;5047597;28;20657;-49
2022/03/20 03:18:47;;;;;;;6.70;5.53;;;22.40;33.20;;;;;;5035586;28;20029;-51
2022/03/20 03:21:15;;;;;;;5.90;5.25;;;22.40;33.20;;;;;;5028305;28;20559;-51
2022/03/20 03:23:42;;;;;;;6.22;5.10;;;22.40;33.20;;;;;;5047644;28;20029;-48
2022/03/20 03:26:08;;;;;;;6.82;5.55;;;22.40;33.20;;;;;;5047959;28;20029;-49
2022/03/20 03:28:34;;;;;;;6.05;5.18;;;22.40;33.20;;;;;;5045917;28;20233;-49
2022/03/20 03:31:02;;;;;;;6.53;5.53;;;22.30;33.20;;;;;;5047006;28;20113;-50
2022/03/20 03:33:28;;;;;;;6.32;5.10;;;22.30;33.20;;;;;;5047141;28;20456;-50
2022/03/20 03:35:54;;;;;;;6.35;5.60;;;22.40;33.20;;;;;;5047340;28;20032;-50
2022/03/20 03:38:34;;;;;;;7.22;5.40;;;22.40;33.20;;;;;;5046256;28;20638;-51
2022/03/20 03:41:00;;;;;;;7.18;4.85;;;22.30;33.20;;;;;;5046695;28;20263;-49
2022/03/20 03:43:27;;;;;;;6.35;5.38;;;22.30;33.20;;;;;;5046801;28;20712;-49
2022/03/20 03:45:53;;;;;;;6.30;5.05;;;22.30;33.20;;;;;;5047218;28;20061;-49
2022/03/20 03:48:19;;;;;;;5.95;5.07;;;22.30;33.20;;;;;;5046221;28;20189;-50
2022/03/20 03:50:47;;;;;;;6.13;5.25;;;22.30;33.20;;;;;;5046885;28;20513;-51
2022/03/20 03:53:13;;;;;;;6.32;5.38;;;22.30;33.20;;;;;;5029086;28;20025;-51
2022/03/20 03:55:43;;;;;;;6.72;5.70;;;22.30;33.20;;;;;;5026875;28;20031;-50
2022/03/20 03:58:10;;;;;;;6.45;5.25;;;22.30;33.10;;;;;;5027046;28;20021;-50
2022/03/20 04:00:36;;;;;;;6.35;4.90;;;22.30;33.10;;;;;;5026440;28;20025;-51
2022/03/20 04:03:02;;;;;;;5.75;4.68;;;22.30;33.10;;;;;;5026097;28;20516;-50
2022/03/20 04:05:29;;;;;;;6.05;5.07;;;22.30;33.10;;;;;;5026503;28;20087;-50
2022/03/20 04:07:55;;;;;;;6.38;5.25;;;22.30;33.10;;;;;;5040188;28;20029;-51
2022/03/20 04:10:22;;;;;;;5.68;4.85;;;22.30;33.20;;;;;;5036532;28;20057;-50
2022/03/20 04:12:49;;;;;;;6.72;4.80;;;22.30;33.10;;;;;;5026588;28;20033;-51
2022/03/20 04:15:17;;;;;;;6.20;5.30;;;22.30;33.10;;;;;;5026536;28;20064;-50
2022/03/20 04:17:43;;;;;;;6.55;5.25;;;22.30;33.10;;;;;;5026151;28;20033;-49
2022/03/20 04:20:12;;;;;;;5.88;5.15;;;22.20;33.00;;;;;;5025582;28;20110;-50
2022/03/20 04:22:39;;;;;;;5.32;4.47;;;22.30;33.10;;;;;;5037144;28;20612;-49
2022/03/20 04:25:06;;;;;;;5.75;4.53;;;22.30;33.10;;;;;;5045821;28;20612;-50
2022/03/20 04:27:32;;;;;;;6.60;5.10;;;22.20;33.10;;;;;;5046115;28;20052;-51
2022/03/20 04:29:59;;;;;;;5.60;4.82;;;22.20;33.00;;;;;;5045646;28;20501;-50
2022/03/20 04:32:25;;;;;;;5.75;4.78;;;22.20;33.10;;;;;;5045816;28;20033;-49
2022/03/20 04:34:53;;;;;;;5.80;4.90;;;22.20;33.00;;;;;;5045566;28;20032;-51
2022/03/20 04:37:21;;;;;;;5.82;4.75;;;22.20;33.10;;;;;;5037406;28;20026;-49
2022/03/20 04:39:48;;;;;;;5.40;4.40;;;22.20;33.10;;;;;;5025747;28;20037;-49
2022/03/20 04:42:13;;;;;;;6.80;4.72;;;22.20;33.00;;;;;;5025527;28;20033;-49
2022/03/20 04:44:40;;;;;;;6.30;4.88;;;22.20;33.00;;;;;;5026001;28;20030;-49
2022/03/20 04:58:29;;;;;;;5.93;4.70;;;22.20;33.00;;;;;;5025393;28;20041;-49
2022/03/20 05:00:52;;;;;;;6.72;4.65;;;22.10;33.00;;;;;;5045042;28;20032;-50
2022/03/20 05:03:18;;;;;;;4.72;3.83;;;22.10;33.00;;;;;;5044880;28;20025;-50
2022/03/20 05:05:45;;;;;;;5.50;4.43;;;22.10;33.10;;;;;;5045041;28;20051;-51
2022/03/20 05:08:11;;;;;;;5.60;4.25;;;22.10;33.00;;;;;;5045287;28;20044;-50
2022/03/20 05:13:21;;;;;;;5.85;4.30;;;22.10;33.00;;;;;;5044909;28;20121;-49
2022/03/20 05:15:47;;;;;;;5.45;4.45;;;22.10;33.00;;;;;;5045000;28;20021;-49
2022/03/20 05:18:12;;;;;;;5.00;4.25;;;22.10;33.00;;;;;;5036237;28;20025;-50
2022/03/20 05:20:38;;;;;;;5.25;4.53;;;22.10;33.00;;;;;;5024834;28;20056;-51
2022/03/20 05:23:04;;;;;;;4.55;3.58;;;22.10;33.00;;;;;;5037508;28;20382;-51
2022/03/20 05:25:30;;;;;;;6.07;4.80;;;22.10;33.00;;;;;;5044485;28;20029;-50
2022/03/20 05:27:57;;;;;;;5.53;4.32;;;22.10;32.90;;;;;;5044811;28;20032;-50
2022/03/20 05:30:24;;;;;;;4.75;3.80;;;22.10;32.90;;;;;;5044367;28;20685;-50
2022/03/20 05:32:50;;;;;;;5.40;4.10;;;22.10;32.90;;;;;;5044685;28;20021;-51
2022/03/20 05:35:16;;;;;;;6.45;4.45;;;22.10;32.90;;;;;;5044957;28;20087;-49
2022/03/20 05:37:46;;;;;;;5.28;3.92;;;22.10;32.90;;;;;;5044461;28;20039;-48
2022/03/20 05:40:13;;;;;;;5.15;3.88;;;22.10;32.90;;;;;;5044638;28;20714;-50
2022/03/20 05:42:39;;;;;;;4.78;3.90;;;22.10;32.90;;;;;;5043677;28;20044;-49
2022/03/20 05:45:06;;;;;;;4.55;3.33;;;22.00;32.80;;;;;;5044556;28;20025;-49
2022/03/20 05:47:32;;;;;;;5.07;3.90;;;22.10;32.90;;;;;;5042822;28;20032;-51
2022/03/20 05:50:02;;;;;;;5.15;4.07;;;22.10;32.90;;;;;;5043833;28;20118;-48
2022/03/20 05:52:31;;;;;;;5.30;4.18;;;22.00;32.80;;;;;;5042193;28;20029;-49
2022/03/20 05:54:58;;;;;;;5.47;4.50;;;22.00;32.80;;;;;;5043341;28;20025;-50
2022/03/20 06:00:16;;;;;;;5.35;4.18;;;22.00;32.80;;;;;;5043966;28;20044;-50
2022/03/20 06:02:43;;;;;;;4.88;3.63;;;22.10;32.90;;;;;;5043369;28;20021;-49
2022/03/20 06:05:09;;;;;;;5.50;3.85;;;22.00;32.80;;;;;;5042976;28;20048;-49
2022/03/20 06:07:43;;;;;;;5.72;3.90;;;22.00;32.80;;;;;;5043377;28;20076;-50
2022/03/20 06:10:20;;;;;;;5.30;4.00;;;22.00;32.80;;;;;;5043509;28;20025;-51
2022/03/20 06:12:46;;;;;;;4.63;3.67;;;22.00;32.80;;;;;;5042251;28;20348;-51
2022/03/20 06:15:13;;;;;;;4.53;3.53;;;22.00;32.80;;;;;;5043375;28;20512;-51
2022/03/20 06:17:41;;;;;;;4.93;3.92;;;22.00;32.90;;;;;;5040606;28;20060;-49
2022/03/20 06:20:09;;;;;;;5.05;3.63;;;22.00;33.00;;;;;;5022923;28;20066;-49
2022/03/20 06:22:35;;;;;;;5.32;3.45;;;22.00;33.00;;;;;;5032139;28;20033;-51
2022/03/20 06:25:07;;;;;;;4.95;3.80;;;22.00;33.10;;;;;;5043692;28;20126;-49
2022/03/20 06:27:44;;;;;;;5.38;3.50;;;22.10;33.10;;;;;;5042577;28;20421;-50
2022/03/20 06:30:11;;;;;;;4.47;3.40;;;22.10;33.20;;;;;;5043353;28;20055;-49
2022/03/20 06:32:37;;;;;;;4.70;3.35;;;22.10;33.20;;;;;;5042950;28;20370;-49
2022/03/20 06:35:05;;;;;;;4.72;3.42;;;22.20;33.20;;;;;;5027844;28;20037;-50
2022/03/20 06:37:53;;;;;;;4.45;3.25;;;22.20;33.20;;;;;;5035082;28;20064;-50
2022/03/20 06:40:18;;;;;;;5.95;3.80;;;22.30;33.30;;;;;;5041559;28;20022;-50
2022/03/20 06:42:44;;;;;;;4.03;2.72;;;22.40;33.20;;;;;;5040885;28;20457;-49
2022/03/20 06:45:12;;;;;;;4.55;3.22;;;22.40;33.10;;;;;;5044509;28;20047;-49
2022/03/20 06:47:40;;;;;;;4.85;3.42;;;22.50;33.10;;;;;;5043583;28;20044;-49
2022/03/20 06:50:08;;;;;;;4.28;3.10;;;22.50;33.20;;;;;;5044760;28;20112;-49
2022/03/20 06:52:34;;;;;;;5.00;3.38;;;22.60;33.10;;;;;;5045519;28;20112;-49
2022/03/20 06:55:01;;;;;;;5.32;3.58;;;22.60;33.00;;;;;;5046783;28;20087;-49
2022/03/20 06:57:28;;;;;;;5.18;3.58;;;22.70;32.80;;;;;;5045077;28;20104;-47
2022/03/20 06:59:56;;;;;;;4.65;3.28;;;22.80;33.00;;;;;;5046211;28;20304;-48
2022/03/20 07:02:22;;;;;;;6.90;4.05;;;22.80;33.80;;;;;;5040836;28;20619;-49
2022/03/20 07:04:48;;;;;;;6.80;4.50;;;22.90;33.60;;;;;;5029111;28;20168;-48
2022/03/20 07:07:18;;;;;;;5.82;3.72;;;22.90;33.50;;;;;;5032024;28;20087;-48
2022/03/20 07:09:44;;;;;;;5.22;3.30;;;23.00;33.50;;;;;;5035171;28;20029;-49
2022/03/20 07:12:11;;;;;;;6.93;3.92;;;23.10;33.50;;;;;;5026538;28;20030;-50
2022/03/20 07:14:38;;;;;;;5.43;3.55;;;23.10;33.40;;;;;;5026883;28;20090;-48
2022/03/20 07:17:13;;;;;;;5.53;3.30;;;23.10;33.40;;;;;;5026279;28;20025;-49
2022/03/20 07:19:42;;;;;;;6.10;3.33;;;23.20;33.40;;;;;;5024873;28;20504;-50
2022/03/20 07:22:08;;;;;;;6.05;3.45;;;23.20;34.00;;;;;;5030186;28;20032;-49
2022/03/20 07:24:34;;;;;;;5.15;3.80;;;23.30;33.40;;;;;;5046491;28;20025;-48
2022/03/20 07:29:45;;;;;;;5.45;3.47;;;23.40;33.10;;;;;;5035828;28;20504;-49
2022/03/20 07:32:10;;;;;;;5.00;2.97;;;23.40;33.10;;;;;;5045389;28;20374;-49
2022/03/20 07:34:39;;;;;;;6.10;3.50;;;23.40;33.10;;;;;;5030743;28;20100;-49
2022/03/20 07:37:06;;;;;;;6.22;3.58;;;23.50;33.20;;;;;;5026385;28;20029;-49
2022/03/20 07:39:33;;;;;;;6.75;3.80;;;23.50;33.10;;;;;;5030590;28;20246;-49
2022/03/20 07:41:59;;;;;;;4.43;3.17;;;23.50;33.00;;;;;;5043403;28;20025;-49
2022/03/20 07:44:26;;;;;;;5.20;3.67;;;23.50;33.00;;;;;;5043104;28;20394;-48
2022/03/20 07:46:53;;;;;;;5.05;3.17;;;23.50;32.90;;;;;;5029696;28;20033;-48
2022/03/20 07:49:20;;;;;;;4.97;3.20;;;23.60;32.80;;;;;;5026345;28;20037;-50
2022/03/20 07:51:46;;;;;;;4.97;3.35;;;23.60;33.40;;;;;;5044158;28;20055;-49
2022/03/20 07:54:13;;;;;;;5.60;3.38;;;23.60;32.70;;;;;;5045677;28;20029;-48
2022/03/20 07:56:39;;;;;;;4.57;3.35;;;23.60;32.70;;;;;;5045971;28;20083;-49
2022/03/20 07:59:06;;;;;;;6.30;4.00;;;23.60;32.60;;;;;;5028573;28;20456;-48
2022/03/20 08:01:35;;;;;;;5.47;3.25;;;23.60;32.60;;;;;;5026195;28;20037;-49
2022/03/20 08:04:02;;;;;;;4.97;3.40;;;23.60;32.70;;;;;;5025032;28;20325;-49
2022/03/20 08:06:28;;;;;;;5.70;3.55;;;23.60;32.50;;;;;;5042771;28;20029;-48
2022/03/20 08:08:59;;;;;;;4.82;3.40;;;23.60;32.40;;;;;;5045255;28;20044;-48
2022/03/20 08:11:26;;;;;;;5.22;3.42;;;23.60;32.40;;;;;;5045957;28;20029;-48
2022/03/20 08:13:52;;;;;;;4.72;3.08;;;23.60;32.30;;;;;;5045567;28;20060;-49
2022/03/20 08:16:21;;;;;;;6.10;3.67;;;23.60;32.40;;;;;;5042753;28;20434;-47
2022/03/20 08:18:48;;;;;;;4.40;2.90;;;23.60;32.40;;;;;;5025771;28;20065;-48
2022/03/20 08:21:14;;;;;;;4.15;2.95;;;23.60;33.00;;;;;;5026076;28;20088;-49
2022/03/20 08:23:40;;;;;;;5.65;3.40;;;23.60;32.40;;;;;;5041610;28;20037;-48
2022/03/20 08:26:08;;;;;;;5.38;3.28;;;23.60;32.30;;;;;;5033331;28;20063;-49
2022/03/20 08:28:38;;;;;;;4.57;3.28;;;23.60;32.30;;;;;;5040991;28;20524;-48
2022/03/20 08:31:06;;;;;;;5.43;3.42;;;23.60;32.80;;;;;;5043893;28;20036;-49
2022/03/20 08:33:33;;;;;;;4.80;3.20;;;23.50;32.10;;;;;;5045460;28;20385;-49
2022/03/20 08:36:00;;;;;;;6.10;3.88;;;23.50;32.10;;;;;;5045421;28;20055;-48
2022/03/20 08:38:26;;;;;;;4.80;3.50;;;23.50;32.00;;;;;;5045375;28;20096;-49
2022/03/20 08:40:52;;;;;;;4.75;3.33;;;23.50;32.10;;;;;;5044994;28;20448;-48
2022/03/20 08:43:18;;;;;;;4.65;3.20;;;23.50;32.10;;;;;;5043724;28;20033;-49
2022/03/20 08:45:44;;;;;;;4.38;2.92;;;23.50;32.00;;;;;;5045276;28;20029;-48
2022/03/20 08:48:10;;;;;;;4.15;2.95;;;23.50;32.00;;;;;;5043455;28;20017;-48
2022/03/20 08:50:37;;;;;;;5.95;3.47;;;23.60;32.00;;;;;;5024698;28;20037;-47
2022/03/20 08:53:03;;;;;;;4.93;3.05;;;23.50;32.00;;;;;;5034845;28;20037;-48
2022/03/20 08:55:33;;;;;;;4.85;3.00;;;23.50;32.20;;;;;;5045111;28;20389;-47
2022/03/20 08:57:59;;;;;;;4.25;2.85;;;23.60;32.30;;;;;;5036720;28;20033;-49
2022/03/20 09:00:26;;;;;;;4.65;2.83;;;23.60;32.30;;;;;;5032535;28;20314;-47
2022/03/20 09:02:53;;;;;;;4.82;2.85;;;23.60;32.50;;;;;;5043131;28;20378;-48
2022/03/20 09:05:19;;;;;;;6.32;3.40;;;23.60;32.60;;;;;;5044565;28;20025;-49
2022/03/20 09:07:47;;;;;;;4.80;3.03;;;23.60;32.70;;;;;;5042222;28;20037;-47
2022/03/20 09:10:15;;;;;;;5.68;3.38;;;23.60;32.70;;;;;;5042983;28;20029;-50
2022/03/20 09:12:44;;;;;;;5.80;3.10;;;23.70;32.60;;;;;;5043031;28;20033;-49
2022/03/20 09:15:15;;;;;;;4.43;2.55;;;23.70;32.60;;;;;;5043328;28;20016;-49
2022/03/20 09:20:27;;;;;;;4.25;3.00;;;23.70;32.60;;;;;;5016917;28;20072;-49
2022/03/20 09:22:54;;;;;;;5.60;3.13;;;23.70;32.40;;;;;;5027354;28;20029;-48
2022/03/20 09:25:20;;;;;;;6.30;3.67;;;23.70;32.40;;;;;;5032837;28;20172;-48
2022/03/20 09:27:49;;;;;;;4.40;3.15;;;23.70;32.40;;;;;;5032228;28;20571;-48
2022/03/20 09:30:21;;;;;;;5.25;3.20;;;23.70;32.40;;;;;;5034425;28;20080;-48
2022/03/20 09:32:48;;;;;;;5.20;3.03;;;23.80;32.40;;;;;;5033750;28;20108;-48
2022/03/20 09:35:15;;;;;;;5.10;3.42;;;23.80;32.50;;;;;;5032455;28;20048;-48
2022/03/20 09:37:41;;;;;;;5.20;3.50;;;23.80;32.50;;;;;;5032446;28;20033;-49
2022/03/20 09:40:12;;;;;;;6.63;3.97;;;23.80;32.50;;;;;;5040816;28;20025;-49
2022/03/20 09:42:38;;;;;;;4.55;3.42;;;23.80;32.50;;;;;;5042398;28;20113;-55
2022/03/20 09:45:05;;;;;;;5.60;3.50;;;23.80;32.50;;;;;;5043906;28;20484;-48
2022/03/20 09:47:36;;;;;;;4.88;3.38;;;23.80;32.50;;;;;;5044272;28;20029;-48
2022/03/20 09:50:02;;;;;;;5.28;3.28;;;23.80;32.60;;;;;;5026807;28;20053;-48
2022/03/20 09:52:28;;;;;;;4.53;3.10;;;23.80;32.60;;;;;;5027597;28;20079;-49
2022/03/20 09:54:54;;;;;;;4.43;3.05;;;23.80;32.60;;;;;;5043454;28;20237;-49
2022/03/20 09:57:20;;;;;;;4.90;3.35;;;23.80;32.70;;;;;;5023947;28;20037;-49
2022/03/20 09:59:48;;;;;;;5.75;3.40;;;23.80;32.60;;;;;;5024160;28;20025;-48
2022/03/20 10:02:14;;;;;;;5.55;3.25;;;23.80;32.60;;;;;;5025605;28;20112;-47
2022/03/20 10:04:56;;;;;;;4.75;3.10;;;23.80;32.60;;;;;;5039805;28;20116;-47
2022/03/20 10:07:28;;;;;;;5.10;3.20;;;23.80;32.60;;;;;;5041333;28;20032;-48
2022/03/20 10:10:16;;;;;;;4.93;3.60;;;23.80;32.80;;;;;;5037840;28;20112;-48
2022/03/20 10:12:52;;;;;;;6.75;3.22;;;23.80;32.70;;;;;;5041664;28;20060;-48
2022/03/20 10:15:37;;;;;;;5.70;4.10;;;23.80;32.50;;;;;;5041974;28;20064;-49
2022/03/20 10:18:08;;;;;;;11.20;3.90;;;23.80;31.80;;;;;;5043148;28;20025;-48
2022/03/20 10:20:41;;;;;;;7.85;5.40;;;23.80;31.30;;;;;;5043066;28;20029;-48
2022/03/20 10:23:36;;;;;;;11.02;4.95;;;23.80;30.90;;;;;;5044967;28;20373;-47
2022/03/20 10:26:12;;;;;;;7.28;5.43;;;23.80;31.10;;;;;;5035164;28;20074;-48
2022/03/20 10:28:43;;;;;;;7.53;5.30;;;23.70;31.20;;;;;;5047815;28;20025;-49
2022/03/20 10:31:15;;;;;;;8.60;5.60;;;23.70;31.10;;;;;;5048186;28;20041;-48
2022/03/20 10:33:41;;;;;;;7.63;5.25;;;23.70;31.00;;;;;;5048609;28;20021;-48
2022/03/20 10:36:11;;;;;;;6.72;4.95;;;23.70;30.90;;;;;;5048024;28;20032;-50
2022/03/20 10:38:37;;;;;;;7.72;5.20;;;23.70;30.80;;;;;;5047889;28;20744;-49
2022/03/20 10:41:27;;;;;;;7.32;4.95;;;23.60;30.50;;;;;;5047309;28;20219;-49
2022/03/20 10:43:55;;;;;;;7.13;4.60;;;23.60;30.50;;;;;;5047193;28;20090;-48
2022/03/20 10:50:08;;;;;;;6.90;5.20;;;23.60;30.20;;;;;;5020788;28;20056;-42
2022/03/20 10:52:38;;;;;;;9.07;5.22;;;23.60;30.10;;;;;;5025902;28;20053;-43
2022/03/20 10:55:09;;;;;;;7.80;4.80;;;23.60;29.80;;;;;;5027000;28;20040;-43
2022/03/20 10:57:36;;;;;;;7.82;5.72;;;23.60;29.90;;;;;;5042233;28;20036;-43
2022/03/20 11:00:06;;;;;;;7.20;5.60;;;23.60;29.80;;;;;;5047407;28;20431;-43
2022/03/20 11:02:37;;;;;;;6.72;5.07;;;23.50;29.60;;;;;;5045370;28;20013;-44
2022/03/20 11:05:03;;;;;;;6.55;5.25;;;23.50;29.30;;;;;;5029208;28;20029;-43
2022/03/20 11:07:28;;;;;;;6.68;5.50;;;23.60;29.50;;;;;;5025778;28;20082;-42
2022/03/20 11:09:55;;;;;;;6.20;5.00;;;23.50;29.30;;;;;;5025809;28;20512;-43
2022/03/20 11:12:34;;;;;;;7.65;5.70;;;23.50;29.50;;;;;;5027191;28;20052;-42
2022/03/20 11:15:03;;;;;;;7.60;5.78;;;23.50;29.40;;;;;;5025935;28;20028;-42
2022/03/20 11:17:43;;;;;;;7.47;5.85;;;23.50;29.00;;;;;;5019491;28;20032;-42
2022/03/20 11:20:12;;;;;;;7.88;5.65;;;23.50;29.70;;;;;;5025833;28;20474;-43
2022/03/20 11:22:47;;;;;;;7.00;5.05;;;23.50;28.30;;;;;;5026232;28;20505;-43
2022/03/20 11:25:17;;;;;;;6.70;5.25;;;23.50;28.10;;;;;;5025296;28;20049;-43
2022/03/20 11:27:49;;;;;;;7.53;5.28;;;23.50;28.20;;;;;;5026136;28;20765;-42
2022/03/20 11:30:15;;;;;;;7.25;5.00;;;23.50;28.60;;;;;;5026417;28;20044;-42
2022/03/20 11:32:43;;;;;;;8.50;6.18;;;23.50;28.90;;;;;;5026116;28;20025;-44
2022/03/20 11:35:09;;;;;;;8.02;4.93;;;23.50;29.40;;;;;;5025004;28;20025;-43
2022/03/20 11:37:43;;;;;;;9.00;5.53;;;23.50;29.50;;;;;;5025351;28;20499;-41
2022/03/20 11:40:15;;;;;;;8.23;5.43;;;23.50;30.60;;;;;;5025644;28;20555;-41
2022/03/20 11:42:42;;;;;;;9.10;6.10;;;23.60;30.40;;;;;;5025841;28;20622;-43
2022/03/20 11:45:10;;;;;;;6.95;5.40;;;23.60;31.10;;;;;;5026046;28;20029;-42
2022/03/20 11:47:38;;;;;;;7.15;5.22;;;23.60;31.30;;;;;;5025097;28;20095;-42
2022/03/20 11:50:17;;;;;;;6.07;4.43;;;23.60;31.30;;;;;;5025786;28;20038;-42
2022/03/20 11:53:04;;;;;;;7.50;4.45;;;23.70;31.40;;;;;;5024782;28;20037;-42
2022/03/20 11:55:31;;;;;;;6.15;4.28;;;23.70;31.40;;;;;;5026408;28;20026;-43
2022/03/20 11:57:58;;;;;;;6.07;4.13;;;23.70;31.80;;;;;;5025450;28;20025;-42
2022/03/20 12:00:29;;;;;;;5.55;4.03;;;23.80;31.60;;;;;;5024542;28;20049;-43
2022/03/20 12:03:09;;;;;;;7.53;4.72;;;23.80;31.50;;;;;;5023901;28;20045;-41
2022/03/20 12:05:41;;;;;;;6.90;5.95;;;23.80;32.70;;;;;;5007735;28;20033;-42
2022/03/20 12:08:37;;;;;;;6.32;5.05;;;23.80;33.70;;;;;;5018503;28;20508;-42
2022/03/20 12:11:21;;;;;;;6.15;4.47;;;23.90;32.60;;;;;;5025015;28;20768;-43
2022/03/20 12:13:56;;;;;;;5.47;3.80;;;23.90;32.20;;;;;;5025915;28;20029;-43
2022/03/20 12:16:45;;;;;;;6.28;4.30;;;24.00;32.00;;;;;;5023775;28;20023;-42
2022/03/20 12:19:22;;;;;;;5.82;3.90;;;24.00;32.00;;;;;;5018278;28;20378;-43
2022/03/20 12:22:01;;;;;;;5.45;3.95;;;24.00;31.90;;;;;;5017719;28;20388;-43
2022/03/20 12:24:52;;;;;;;5.70;3.95;;;24.10;31.90;;;;;;5024944;28;20037;-43
2022/03/20 12:27:22;;;;;;;5.05;3.67;;;24.10;31.80;;;;;;5021529;28;20044;-42
2022/03/20 12:29:51;;;;;;;5.50;3.92;;;24.10;31.80;;;;;;5024114;28;20092;-43
2022/03/20 12:32:18;;;;;;;6.72;4.05;;;24.10;31.60;;;;;;5023007;28;20030;-43
2022/03/20 12:35:04;;;;;;;5.90;3.88;;;24.10;31.50;;;;;;5024449;28;20084;-43
2022/03/20 12:37:30;;;;;;;6.15;4.40;;;24.10;31.50;;;;;;5019577;28;20034;-43
2022/03/20 12:40:18;;;;;;;5.72;3.72;;;24.10;31.50;;;;;;5025099;28;20065;-44
2022/03/20 12:43:10;;;;;;;5.75;3.50;;;24.10;31.50;;;;;;5024284;28;20017;-43
2022/03/20 12:45:41;;;;;;;4.82;3.30;;;24.10;32.10;;;;;;5025692;28;20410;-43
2022/03/20 12:48:12;;;;;;;4.90;3.22;;;24.20;31.50;;;;;;5023469;28;20034;-43
2022/03/20 12:50:40;;;;;;;5.30;3.72;;;24.20;31.50;;;;;;5005059;28;20034;-43
2022/03/20 12:53:09;;;;;;;5.68;3.60;;;24.20;31.30;;;;;;5011259;28;20037;-41
2022/03/20 12:55:37;;;;;;;4.75;3.15;;;24.20;31.30;;;;;;5022608;28;20030;-43
2022/03/20 12:58:03;;;;;;;5.88;3.53;;;24.20;31.30;;;;;;5023377;28;20432;-44
2022/03/20 13:00:35;;;;;;;5.90;3.42;;;24.20;31.30;;;;;;5023347;28;20621;-44
2022/03/20 13:03:10;;;;;;;5.00;3.28;;;24.20;31.40;;;;;;5023824;28;20371;-42
2022/03/20 13:05:50;;;;;;;4.93;3.35;;;24.20;31.50;;;;;;5024218;28;20108;-43
2022/03/20 13:08:21;;;;;;;5.63;3.38;;;24.20;31.30;;;;;;5023795;28;20025;-43
2022/03/20 13:10:48;;;;;;;5.50;3.70;;;24.20;31.30;;;;;;5023232;28;20040;-43
2022/03/20 13:13:16;;;;;;;6.00;3.15;;;24.30;31.30;;;;;;5022728;28;20025;-43
2022/03/20 13:15:42;;;;;;;6.10;3.47;;;24.30;31.30;;;;;;5021878;28;20506;-43
2022/03/20 13:18:09;;;;;;;5.75;3.55;;;24.30;31.20;;;;;;5027670;28;20021;-43
2022/03/20 13:20:44;;;;;;;4.82;3.35;;;24.30;31.20;;;;;;5024114;28;20116;-43
2022/03/20 13:23:19;;;;;;;4.72;3.10;;;24.30;31.10;;;;;;5014462;28;20039;-43
2022/03/20 13:26:00;;;;;;;5.10;2.88;;;24.30;31.00;;;;;;5023459;28;20068;-43
2022/03/20 13:28:31;;;;;;;5.95;3.33;;;24.40;31.00;;;;;;5023343;28;20037;-43